Time;durP1;ratioP1;P1;durP2;ratioP2;P2;SDS_P1;SDS_P2;PMS_P1;PMS_P2;Temp;Humidity;BMP_temperature;BMP_pressure;BME280_temperature;BME280_humidity;BME280_pressure;Samples;Min_cycle;Max_cycle;Signal;HPM_P1;HPM_P2
2023/08/19 00:01:12;;;;;;;6.47;5.97;;;21.00;99.90;;;;;;5020403;28;20619;-80
2023/08/19 00:03:39;;;;;;;5.73;4.70;;;20.90;99.90;;;;;;5022744;28;20200;-80
2023/08/19 00:06:07;;;;;;;9.60;8.80;;;20.90;99.90;;;;;;5020248;28;20269;-80
2023/08/19 00:08:35;;;;;;;7.67;6.90;;;20.90;99.90;;;;;;5018630;28;20258;-80
2023/08/19 00:11:02;;;;;;;6.93;6.33;;;20.80;99.90;;;;;;5016890;28;20303;-80
2023/08/19 00:13:29;;;;;;;7.83;6.90;;;20.80;99.90;;;;;;5014408;28;20231;-80
2023/08/19 00:15:56;;;;;;;7.43;6.73;;;20.70;99.90;;;;;;5018446;28;20308;-80
2023/08/19 00:18:23;;;;;;;7.00;6.40;;;20.70;99.90;;;;;;5020240;28;20254;-80
2023/08/19 00:20:51;;;;;;;6.77;6.23;;;20.70;99.90;;;;;;5019618;28;20197;-80
2023/08/19 00:23:18;;;;;;;7.50;6.90;;;20.60;99.90;;;;;;5019900;28;20200;-80
2023/08/19 00:25:46;;;;;;;7.30;6.70;;;20.60;99.90;;;;;;5012709;28;20208;-80
2023/08/19 00:28:13;;;;;;;7.40;6.80;;;20.50;99.90;;;;;;5017429;28;20662;-81
2023/08/19 00:30:41;;;;;;;7.40;6.70;;;20.50;99.90;;;;;;5014010;28;20216;-79
2023/08/19 00:33:07;;;;;;;7.40;6.80;;;20.40;99.90;;;;;;5017214;28;20211;-80
2023/08/19 00:35:36;;;;;;;7.57;6.97;;;20.40;99.90;;;;;;5018751;28;20207;-80
2023/08/19 00:38:03;;;;;;;9.80;7.00;;;20.40;99.90;;;;;;5020644;28;20527;-80
2023/08/19 00:40:30;;;;;;;11.73;7.67;;;20.30;99.90;;;;;;5020621;28;20203;-80
2023/08/19 00:42:58;;;;;;;7.40;6.70;;;20.30;99.90;;;;;;5016363;28;20208;-80
2023/08/19 00:45:25;;;;;;;7.63;6.93;;;20.20;99.90;;;;;;5018885;28;20235;-81
2023/08/19 00:47:52;;;;;;;8.20;7.40;;;20.20;99.90;;;;;;5016426;28;20221;-80
2023/08/19 00:50:19;;;;;;;8.17;6.77;;;20.20;99.90;;;;;;5015843;28;20274;-79
2023/08/19 00:52:46;;;;;;;7.57;6.97;;;20.10;99.90;;;;;;5021837;28;20207;-80
2023/08/19 00:55:13;;;;;;;8.40;7.57;;;20.10;99.90;;;;;;5024855;28;20231;-80
2023/08/19 00:57:42;;;;;;;7.97;7.20;;;20.00;99.90;;;;;;5019659;28;20232;-80
2023/08/19 01:00:11;;;;;;;8.27;7.47;;;20.00;99.90;;;;;;5017290;28;20666;-80
2023/08/19 01:02:39;;;;;;;7.53;6.93;;;20.00;99.90;;;;;;5024817;28;20196;-80
2023/08/19 01:05:06;;;;;;;7.80;7.03;;;19.90;99.90;;;;;;5016599;28;20685;-80
2023/08/19 01:07:39;;;;;;;7.47;6.77;;;19.90;99.90;;;;;;5021482;28;20602;-80
2023/08/19 01:10:12;;;;;;;8.50;7.47;;;19.90;99.90;;;;;;5019487;28;20579;-80
2023/08/19 01:12:47;;;;;;;8.10;7.30;;;19.90;99.90;;;;;;5016624;28;20223;-80
2023/08/19 01:15:19;;;;;;;7.80;7.17;;;19.80;99.90;;;;;;5017942;28;20199;-80
2023/08/19 01:17:49;;;;;;;7.80;7.07;;;19.80;99.90;;;;;;5028360;28;20289;-80
2023/08/19 01:20:18;;;;;;;8.00;7.37;;;19.80;99.90;;;;;;5016542;28;20666;-80
2023/08/19 01:22:50;;;;;;;7.57;7.00;;;19.80;99.90;;;;;;5012797;28;20207;-80
2023/08/19 01:25:19;;;;;;;7.87;7.23;;;19.80;99.90;;;;;;5015858;28;20761;-80
2023/08/19 01:27:47;;;;;;;8.00;7.30;;;19.80;99.90;;;;;;5019828;28;20220;-80
2023/08/19 01:30:15;;;;;;;8.17;7.40;;;19.70;99.90;;;;;;5014584;28;20220;-80
2023/08/19 01:32:43;;;;;;;10.63;7.67;;;19.70;99.90;;;;;;5019842;28;20294;-80
2023/08/19 01:35:11;;;;;;;9.27;7.70;;;19.60;99.90;;;;;;5025936;28;20635;-80
2023/08/19 01:37:45;;;;;;;8.07;7.40;;;19.60;99.90;;;;;;5012845;28;20224;-80
2023/08/19 01:40:13;;;;;;;8.00;7.30;;;19.60;99.90;;;;;;5017355;28;20584;-80
2023/08/19 01:42:43;;;;;;;8.13;7.53;;;19.50;99.90;;;;;;5014393;28;20209;-80
2023/08/19 01:45:11;;;;;;;7.90;7.30;;;19.50;99.90;;;;;;5018680;28;20250;-80
2023/08/19 01:47:38;;;;;;;8.47;7.67;;;19.50;99.90;;;;;;5014007;28;20239;-80
2023/08/19 01:50:06;;;;;;;8.30;7.60;;;19.50;99.90;;;;;;5015934;28;20196;-80
2023/08/19 01:52:34;;;;;;;8.20;7.47;;;19.50;99.90;;;;;;5011000;28;20211;-80
2023/08/19 01:55:01;;;;;;;8.03;7.37;;;19.50;99.90;;;;;;5019352;28;20613;-80
2023/08/19 01:57:28;;;;;;;9.77;8.30;;;19.40;99.90;;;;;;5015615;28;20316;-80
2023/08/19 01:59:56;;;;;;;9.77;8.27;;;19.40;99.90;;;;;;5020181;28;20285;-80
2023/08/19 02:02:24;;;;;;;8.30;7.50;;;19.30;99.90;;;;;;5014588;28;20250;-80
2023/08/19 02:04:51;;;;;;;8.80;8.10;;;19.30;99.90;;;;;;5012375;28;20203;-80
2023/08/19 02:07:17;;;;;;;8.53;7.70;;;19.20;99.90;;;;;;5015583;28;20224;-79
2023/08/19 02:09:46;;;;;;;7.97;7.30;;;19.20;99.90;;;;;;5018221;28;20208;-79
2023/08/19 02:12:12;;;;;;;8.83;8.07;;;19.20;99.90;;;;;;5022090;28;20318;-80
2023/08/19 02:14:39;;;;;;;8.43;7.53;;;19.20;99.90;;;;;;5019245;28;20210;-80
2023/08/19 02:17:08;;;;;;;9.13;8.17;;;19.10;99.90;;;;;;5015941;28;20707;-79
2023/08/19 02:19:35;;;;;;;8.50;7.80;;;19.10;99.90;;;;;;5021957;28;20699;-80
2023/08/19 02:22:02;;;;;;;8.27;7.57;;;19.10;99.90;;;;;;5014169;28;20203;-80
2023/08/19 02:24:29;;;;;;;8.10;7.47;;;19.10;99.90;;;;;;5022221;28;20226;-80
2023/08/19 02:26:56;;;;;;;8.10;7.50;;;19.10;99.90;;;;;;5018402;28;20243;-80
2023/08/19 02:29:23;;;;;;;8.80;8.10;;;19.00;99.90;;;;;;5021604;28;20435;-79
2023/08/19 02:31:49;;;;;;;9.20;8.50;;;19.00;99.90;;;;;;5027431;28;20269;-80
2023/08/19 02:34:19;;;;;;;9.23;8.53;;;19.00;99.90;;;;;;5015826;28;20212;-80
2023/08/19 02:36:46;;;;;;;9.27;8.37;;;19.10;99.90;;;;;;5019289;28;20276;-80
2023/08/19 02:39:12;;;;;;;8.80;8.10;;;19.00;99.90;;;;;;5021226;28;20678;-80
2023/08/19 02:41:39;;;;;;;8.80;8.10;;;19.00;99.90;;;;;;5023422;28;20198;-80
2023/08/19 02:44:07;;;;;;;9.27;8.40;;;19.00;99.90;;;;;;5017087;28;20212;-80
2023/08/19 02:46:34;;;;;;;9.07;8.20;;;19.00;99.90;;;;;;5018402;28;20224;-80
2023/08/19 02:49:01;;;;;;;8.43;7.73;;;18.90;99.90;;;;;;5025298;28;20237;-80
2023/08/19 02:51:29;;;;;;;8.80;8.10;;;18.90;99.90;;;;;;5027669;28;20214;-79
2023/08/19 02:53:56;;;;;;;9.83;8.93;;;18.90;99.90;;;;;;5029729;28;20278;-80
2023/08/19 02:56:23;;;;;;;8.90;8.20;;;18.90;99.90;;;;;;5029945;28;20246;-80
2023/08/19 02:58:50;;;;;;;9.70;8.90;;;18.80;99.90;;;;;;5021843;28;20235;-80
2023/08/19 03:01:16;;;;;;;9.17;8.30;;;18.90;99.90;;;;;;5025281;28;20256;-80
2023/08/19 03:03:44;;;;;;;9.47;8.57;;;18.80;99.90;;;;;;5023490;28;20205;-81
2023/08/19 03:06:11;;;;;;;9.50;8.80;;;18.90;99.90;;;;;;5017926;28;20219;-80
2023/08/19 03:08:40;;;;;;;9.73;8.93;;;18.90;99.90;;;;;;5016588;28;20206;-80
2023/08/19 03:11:06;;;;;;;10.00;9.10;;;18.90;99.90;;;;;;5014221;28;20234;-79
2023/08/19 03:13:35;;;;;;;9.73;8.90;;;18.90;99.90;;;;;;5021162;28;20207;-79
2023/08/19 03:16:03;;;;;;;9.63;8.83;;;18.90;99.90;;;;;;5017797;28;20222;-79
2023/08/19 03:18:30;;;;;;;10.03;9.23;;;18.90;99.90;;;;;;5024898;28;20274;-85
2023/08/19 03:20:59;;;;;;;9.63;8.73;;;18.90;99.90;;;;;;5033317;28;20238;-85
2023/08/19 03:23:27;;;;;;;10.03;9.23;;;18.90;99.90;;;;;;5021383;28;20298;-84
2023/08/19 03:25:57;;;;;;;9.80;9.00;;;18.90;99.90;;;;;;5031925;28;20241;-83
2023/08/19 03:28:24;;;;;;;9.60;8.80;;;18.80;99.90;;;;;;5032740;28;20681;-84
2023/08/19 03:30:52;;;;;;;9.37;8.57;;;18.80;99.90;;;;;;5032195;28;20217;-84
2023/08/19 03:33:20;;;;;;;9.53;8.67;;;18.70;99.90;;;;;;5037107;28;20203;-83
2023/08/19 03:35:58;;;;;;;9.10;8.33;;;18.60;99.90;;;;;;5112705;22;20213;31
2023/08/19 03:38:25;;;;;;;9.70;8.80;;;18.60;99.90;;;;;;4981491;28;20220;-84
2023/08/19 03:40:52;;;;;;;9.87;9.07;;;18.60;99.90;;;;;;4972151;28;20662;-84
2023/08/19 03:43:20;;;;;;;9.83;9.03;;;18.50;99.90;;;;;;4968350;28;20202;-84
2023/08/19 03:45:47;;;;;;;9.90;9.00;;;18.40;99.90;;;;;;4968377;28;20208;-84
2023/08/19 03:48:14;;;;;;;9.30;8.50;;;18.30;99.90;;;;;;4986943;28;20615;-84
2023/08/19 03:50:42;;;;;;;9.83;8.83;;;18.30;99.90;;;;;;5006888;28;20230;-84
2023/08/19 03:53:09;;;;;;;9.17;8.47;;;18.30;99.90;;;;;;4990189;28;20204;-84
2023/08/19 03:55:36;;;;;;;9.60;8.70;;;18.30;99.90;;;;;;5004283;28;20214;-84
2023/08/19 03:58:03;;;;;;;9.40;8.70;;;18.30;99.90;;;;;;4982937;28;20212;-84
2023/08/19 04:00:31;;;;;;;10.13;9.43;;;18.30;99.90;;;;;;5001213;28;20622;-84
2023/08/19 04:02:58;;;;;;;10.57;9.63;;;18.30;99.90;;;;;;4997748;28;20289;-82
2023/08/19 04:05:25;;;;;;;9.27;8.57;;;18.30;99.90;;;;;;4997806;28;20677;-83
2023/08/19 04:07:52;;;;;;;9.80;9.00;;;18.20;99.90;;;;;;4994193;28;20224;-83
2023/08/19 04:10:19;;;;;;;10.03;9.23;;;18.30;99.90;;;;;;4993185;28;20223;-81
2023/08/19 04:12:46;;;;;;;9.30;8.60;;;18.20;99.90;;;;;;4991419;28;20231;-82
2023/08/19 04:15:17;;;;;;;9.20;8.50;;;18.20;99.90;;;;;;4986413;28;20226;-82
2023/08/19 04:17:47;;;;;;;10.03;9.23;;;18.20;99.90;;;;;;4974506;28;20242;-79
2023/08/19 04:20:15;;;;;;;10.23;9.43;;;18.20;99.90;;;;;;4974812;28;20690;-81
2023/08/19 04:22:42;;;;;;;9.67;8.97;;;18.20;99.90;;;;;;4989471;28;20814;-82
2023/08/19 04:25:09;;;;;;;10.13;9.33;;;18.20;99.90;;;;;;4988568;28;20224;-84
2023/08/19 04:27:39;;;;;;;9.70;8.90;;;18.20;99.90;;;;;;4989402;28;20222;-81
2023/08/19 04:30:12;;;;;;;10.27;9.37;;;18.20;99.90;;;;;;4989335;28;20203;-81
2023/08/19 04:32:39;;;;;;;10.40;9.40;;;18.20;99.90;;;;;;4975881;28;20213;-83
2023/08/19 04:35:11;;;;;;;10.57;9.57;;;18.30;99.90;;;;;;4975582;28;20219;-79
2023/08/19 04:37:40;;;;;;;9.53;8.83;;;18.30;99.90;;;;;;4990888;28;20237;-80
2023/08/19 04:40:09;;;;;;;10.37;9.47;;;18.30;99.90;;;;;;4996504;28;20233;-79
2023/08/19 04:42:39;;;;;;;10.57;9.57;;;18.30;99.90;;;;;;5024457;28;20731;-79
2023/08/19 04:45:09;;;;;;;10.27;9.40;;;18.40;99.90;;;;;;5010863;28;20229;-79
2023/08/19 04:47:38;;;;;;;10.77;9.63;;;18.50;99.90;;;;;;5021660;28;20227;-79
2023/08/19 04:50:08;;;;;;;10.87;9.87;;;18.50;99.90;;;;;;5022932;28;20194;-78
2023/08/19 04:52:37;;;;;;;9.60;8.80;;;18.50;99.90;;;;;;5014155;28;20247;-78
2023/08/19 04:55:04;;;;;;;9.57;8.73;;;18.50;99.90;;;;;;5019002;28;20240;-79
2023/08/19 04:57:31;;;;;;;9.47;8.70;;;18.50;99.90;;;;;;4995645;28;20608;-79
2023/08/19 04:59:58;;;;;;;9.73;9.00;;;18.50;99.90;;;;;;5020102;28;20654;-79
2023/08/19 05:02:25;;;;;;;10.00;9.10;;;18.60;99.90;;;;;;4995345;28;20197;-79
2023/08/19 05:04:52;;;;;;;10.33;9.53;;;18.60;99.90;;;;;;5011561;28;20199;-79
2023/08/19 05:07:19;;;;;;;10.20;9.30;;;18.60;99.90;;;;;;5011729;28;20705;-79
2023/08/19 05:09:47;;;;;;;9.70;9.00;;;18.60;99.90;;;;;;5011513;28;20194;-79
2023/08/19 05:12:14;;;;;;;10.53;9.53;;;18.70;99.90;;;;;;5020627;28;20253;-79
2023/08/19 05:14:41;;;;;;;10.30;9.40;;;18.70;99.90;;;;;;5012105;28;20233;-81
2023/08/19 05:17:08;;;;;;;10.43;9.63;;;18.80;99.90;;;;;;5024033;28;20215;-80
2023/08/19 05:19:36;;;;;;;10.10;9.30;;;18.90;99.90;;;;;;5012795;28;20294;-79
2023/08/19 05:22:03;;;;;;;10.13;9.37;;;19.00;99.90;;;;;;5011866;28;20229;-79
2023/08/19 05:24:30;;;;;;;9.80;9.00;;;19.20;99.90;;;;;;5008843;28;20274;-80
2023/08/19 05:26:58;;;;;;;9.00;8.30;;;19.30;99.90;;;;;;5009859;28;20219;-80
2023/08/19 05:29:25;;;;;;;9.70;9.00;;;19.40;99.90;;;;;;5012142;28;20196;-82
2023/08/19 05:31:51;;;;;;;9.70;8.90;;;19.40;99.90;;;;;;5015089;28;20216;-82
2023/08/19 05:34:18;;;;;;;9.83;9.03;;;19.50;99.90;;;;;;4996231;28;20212;-81
2023/08/19 05:36:45;;;;;;;11.37;10.57;;;19.60;99.90;;;;;;5014881;28;20223;-81
2023/08/19 05:39:12;;;;;;;9.23;8.63;;;19.70;99.90;;;;;;4997449;28;20218;-81
2023/08/19 05:41:39;;;;;;;9.90;9.20;;;19.90;99.90;;;;;;5016149;28;20185;-81
2023/08/19 05:44:07;;;;;;;9.00;8.30;;;20.10;99.90;;;;;;5016252;28;20271;-79
2023/08/19 05:46:34;;;;;;;8.87;8.27;;;20.20;99.90;;;;;;5010274;28;20223;-81
2023/08/19 05:49:01;;;;;;;9.13;8.43;;;20.40;99.90;;;;;;5013013;28;20631;-82
2023/08/19 05:51:28;;;;;;;8.83;8.00;;;20.50;99.90;;;;;;5012133;28;20219;-81
2023/08/19 05:54:00;;;;;;;9.03;8.23;;;20.60;99.90;;;;;;5012270;28;20195;-81
2023/08/19 05:56:26;;;;;;;9.90;8.90;;;20.70;99.90;;;;;;5012674;28;20278;-85
2023/08/19 05:58:53;;;;;;;9.57;8.87;;;20.80;99.90;;;;;;5012744;28;20204;-81
2023/08/19 06:01:22;;;;;;;5.50;5.00;;;20.90;99.90;;;;;;5011548;28;20235;-83
2023/08/19 06:03:48;;;;;;;9.20;8.57;;;20.90;99.90;;;;;;4995408;28;20207;-82
2023/08/19 06:06:16;;;;;;;9.30;8.60;;;21.00;99.90;;;;;;4995216;28;20656;-83
2023/08/19 06:08:51;;;;;;;8.20;7.43;;;21.10;99.90;;;;;;5012113;28;20291;-83
2023/08/19 06:11:18;;;;;;;6.33;4.77;;;21.20;99.90;;;;;;5012865;28;20196;-82
2023/08/19 06:25:58;;;;;;;6.20;4.70;;;21.60;99.90;;;;;;4931664;29;20182;-83
2023/08/19 06:28:36;;;;;;;4.80;4.27;;;21.80;99.90;;;;;;4959289;28;20619;-82
2023/08/19 06:31:03;;;;;;;5.37;4.10;;;21.90;99.90;;;;;;5006214;28;20637;-83
2023/08/19 06:33:36;;;;;;;9.00;8.30;;;22.00;99.90;;;;;;5008193;28;20235;-84
2023/08/19 06:36:05;;;;;;;9.10;8.43;;;22.10;99.90;;;;;;5011948;28;20223;-82
2023/08/19 06:38:35;;;;;;;5.97;5.47;;;22.20;99.90;;;;;;4993929;28;20196;-83
2023/08/19 06:41:10;;;;;;;7.03;5.87;;;22.40;99.90;;;;;;5011066;28;20201;-83
2023/08/19 06:43:39;;;;;;;6.27;5.20;;;22.50;99.90;;;;;;5010376;28;20195;-82
2023/08/19 06:46:10;;;;;;;6.37;5.77;;;22.60;99.90;;;;;;5010616;28;20302;-83
2023/08/19 06:52:20;;;;;;;8.90;7.90;;;22.70;99.90;;;;;;5006185;28;20216;-83
2023/08/19 06:54:48;;;;;;;6.47;5.83;;;22.90;99.90;;;;;;4994369;28;20212;-83
2023/08/19 06:57:31;;;;;;;8.70;8.00;;;23.00;99.90;;;;;;5012011;28;20239;-83
2023/08/19 07:00:09;;;;;;;8.70;8.00;;;23.10;99.90;;;;;;5011956;28;20199;-82
2023/08/19 07:03:32;;;;;;;15.77;8.37;;;23.30;99.90;;;;;;5012732;28;20694;-84
2023/08/19 07:06:29;;;;;;;10.07;7.37;;;23.30;99.90;;;;;;5008380;28;20235;-81
2023/08/19 07:10:05;;;;;;;7.47;6.77;;;23.50;99.90;;;;;;4931976;29;20602;-85
2023/08/19 07:12:34;;;;;;;5.00;3.90;;;23.60;99.90;;;;;;4937487;28;20210;-82
2023/08/19 07:15:02;;;;;;;5.87;3.70;;;23.80;99.90;;;;;;5013597;28;20206;-85
2023/08/19 07:17:31;;;;;;;6.77;3.97;;;23.80;99.90;;;;;;5009127;28;20216;-83
2023/08/19 07:20:00;;;;;;;6.20;4.40;;;23.90;99.90;;;;;;5008628;28;20244;-81
2023/08/19 07:22:30;;;;;;;5.33;4.17;;;24.10;99.90;;;;;;5008822;28;20194;-82
2023/08/19 07:24:57;;;;;;;5.10;4.20;;;24.30;99.90;;;;;;5009193;28;20197;-81
2023/08/19 07:27:24;;;;;;;7.50;4.57;;;24.60;99.90;;;;;;4994274;28;20221;-81
2023/08/19 07:29:52;;;;;;;7.80;5.13;;;24.90;99.90;;;;;;5012115;28;20197;-81
2023/08/19 07:32:21;;;;;;;8.27;4.50;;;25.40;99.90;;;;;;5021820;28;20220;-82
2023/08/19 07:34:48;;;;;;;10.50;9.50;;;26.00;99.90;;;;;;5010835;28;20263;-83
2023/08/19 07:37:15;;;;;;;7.77;7.07;;;26.50;99.90;;;;;;5012796;28;20240;-81
2023/08/19 07:39:45;;;;;;;10.00;9.10;;;26.90;99.90;;;;;;5012141;28;20189;-81
2023/08/19 07:42:18;;;;;;;9.97;8.87;;;27.50;99.90;;;;;;4994091;28;20229;-83
2023/08/19 07:44:44;;;;;;;9.73;8.90;;;28.00;99.90;;;;;;5010374;28;20208;-83
2023/08/19 07:47:13;;;;;;;9.27;8.43;;;28.40;99.90;;;;;;5009211;28;20499;-82
2023/08/19 07:49:39;;;;;;;11.53;8.47;;;28.90;99.90;;;;;;5017079;28;20267;-82
2023/08/19 07:52:07;;;;;;;10.60;7.17;;;29.30;99.90;;;;;;5010943;28;20221;-81
2023/08/19 07:54:34;;;;;;;9.03;7.13;;;29.70;99.90;;;;;;5010944;28;20200;-81
2023/08/19 07:57:01;;;;;;;7.87;4.60;;;29.90;99.90;;;;;;5003762;28;20295;-82
2023/08/19 07:59:27;;;;;;;8.10;7.10;;;30.20;99.90;;;;;;5011820;28;20209;-83
2023/08/19 08:01:54;;;;;;;9.10;8.13;;;30.50;99.90;;;;;;5007651;28;20204;-83
2023/08/19 08:04:23;;;;;;;9.77;8.23;;;30.60;99.90;;;;;;4999505;28;20206;-83
2023/08/19 08:06:50;;;;;;;8.87;7.67;;;30.70;99.90;;;;;;5007659;28;20711;-83
2023/08/19 08:09:17;;;;;;;8.50;7.13;;;30.90;99.90;;;;;;5011601;28;20196;-83
2023/08/19 08:11:47;;;;;;;5.77;4.97;;;31.10;99.90;;;;;;5000485;28;20208;-82
2023/08/19 08:14:14;;;;;;;8.80;7.30;;;31.20;99.90;;;;;;4990397;28;20205;-84
2023/08/19 08:16:41;;;;;;;8.60;6.60;;;31.40;99.90;;;;;;5022211;28;20249;-82
2023/08/19 08:19:08;;;;;;;9.37;7.50;;;31.30;99.90;;;;;;5009081;28;20204;-83
2023/08/19 08:21:36;;;;;;;7.93;7.20;;;31.50;99.90;;;;;;5004433;28;20216;-84
2023/08/19 08:24:03;;;;;;;8.23;7.00;;;31.70;99.90;;;;;;5007289;28;20270;-84
2023/08/19 08:26:35;;;;;;;10.77;6.60;;;31.80;99.90;;;;;;5028396;28;20274;-85
2023/08/19 08:29:02;;;;;;;7.65;6.32;;;31.90;99.90;;;;;;5009149;28;20722;-83
2023/08/19 08:31:29;;;;;;;7.13;4.80;;;32.00;99.90;;;;;;5016346;28;20251;-84
2023/08/19 08:33:56;;;;;;;8.95;5.50;;;32.10;99.90;;;;;;5016148;28;20213;-84
2023/08/19 08:36:23;;;;;;;5.63;4.37;;;32.20;99.90;;;;;;5017505;28;20531;-84
2023/08/19 08:38:51;;;;;;;7.75;4.00;;;32.30;99.90;;;;;;5019462;28;20205;-83
2023/08/19 08:41:18;;;;;;;7.07;3.92;;;32.50;99.90;;;;;;5014874;28;20259;-84
2023/08/19 08:43:48;;;;;;;7.00;3.90;;;32.50;99.90;;;;;;5010205;28;20251;-84
2023/08/19 08:46:16;;;;;;;5.32;4.10;;;32.60;99.90;;;;;;4997950;28;20753;-85
2023/08/19 08:48:44;;;;;;;5.57;4.25;;;32.70;99.90;;;;;;5006442;28;20196;-83
2023/08/19 08:51:12;;;;;;;6.43;4.47;;;32.70;99.90;;;;;;5015303;28;20196;-84
2023/08/19 08:53:39;;;;;;;6.65;4.45;;;32.70;99.90;;;;;;5016061;28;20538;-84
2023/08/19 08:56:10;;;;;;;6.22;4.25;;;33.00;99.90;;;;;;5014689;28;20651;-83
2023/08/19 08:58:41;;;;;;;7.65;6.88;;;33.30;99.90;;;;;;5012466;28;20197;-84
2023/08/19 09:01:08;;;;;;;8.13;7.07;;;33.50;99.90;;;;;;5012167;28;20196;-82
2023/08/19 09:03:39;;;;;;;5.85;4.32;;;33.40;99.90;;;;;;5010253;28;20276;-84
2023/08/19 09:06:13;;;;;;;8.45;4.97;;;33.30;99.90;;;;;;5012519;28;20255;-84
2023/08/19 09:08:43;;;;;;;7.25;6.20;;;33.70;99.90;;;;;;5010073;28;20242;-84
2023/08/19 09:11:23;;;;;;;7.57;6.82;;;33.90;99.90;;;;;;5016687;28;20286;-83
2023/08/19 09:13:59;;;;;;;9.65;6.68;;;34.20;99.90;;;;;;5015295;28;20189;-85
2023/08/19 09:16:26;;;;;;;8.63;6.78;;;34.30;99.90;;;;;;5015446;28;20226;-85
2023/08/19 09:18:53;;;;;;;7.80;6.90;;;34.60;99.90;;;;;;5015663;28;20254;-85
2023/08/19 09:21:20;;;;;;;7.55;6.85;;;34.60;99.90;;;;;;5015101;28;20219;-84
2023/08/19 09:23:49;;;;;;;8.18;7.40;;;34.60;99.90;;;;;;5015799;28;20751;-84
2023/08/19 09:26:18;;;;;;;9.45;7.35;;;34.80;99.90;;;;;;5016909;28;20228;-85
2023/08/19 09:28:45;;;;;;;8.27;7.47;;;34.90;99.90;;;;;;5012728;28;20267;-83
2023/08/19 09:31:20;;;;;;;10.50;7.43;;;35.00;99.90;;;;;;5009073;28;20211;-84
2023/08/19 09:33:47;;;;;;;7.80;7.05;;;35.00;99.90;;;;;;5011135;28;20196;-84
2023/08/19 09:36:14;;;;;;;7.80;7.00;;;35.00;99.90;;;;;;5011290;28;20224;-84
2023/08/19 09:38:42;;;;;;;7.30;6.60;;;35.20;99.90;;;;;;5012870;28;20270;-85
2023/08/19 09:41:10;;;;;;;12.52;5.05;;;35.40;99.90;;;;;;5012579;28;20205;-86
2023/08/19 09:43:41;;;;;;;10.85;8.00;;;35.60;99.90;;;;;;5011568;28;20782;-84
2023/08/19 09:46:08;;;;;;;9.70;8.90;;;35.20;99.90;;;;;;4994655;28;20232;-84
2023/08/19 09:48:36;;;;;;;7.22;6.38;;;35.00;99.90;;;;;;5011322;28;20275;-85
2023/08/19 09:51:03;;;;;;;7.20;6.50;;;34.90;99.90;;;;;;5012944;28;20259;-85
2023/08/19 09:53:31;;;;;;;10.10;6.05;;;35.00;99.90;;;;;;5010989;28;20205;-86
2023/08/19 09:55:58;;;;;;;7.63;6.47;;;34.90;99.90;;;;;;5011304;28;20263;-85
2023/08/19 09:58:26;;;;;;;6.63;5.88;;;35.20;99.90;;;;;;5011267;28;20200;-82
2023/08/19 10:00:54;;;;;;;6.45;5.85;;;35.40;99.90;;;;;;5008179;28;20204;-87
2023/08/19 10:03:21;;;;;;;6.78;4.10;;;35.70;99.90;;;;;;5006678;28;20205;-84
2023/08/19 10:05:52;;;;;;;6.00;4.55;;;35.80;99.90;;;;;;4997879;28;20230;-84
2023/08/19 10:08:23;;;;;;;4.65;4.20;;;36.00;99.90;;;;;;4999027;28;20296;-84
2023/08/19 10:10:49;;;;;;;6.28;4.53;;;36.10;99.90;;;;;;5010639;28;20295;-85
2023/08/19 10:13:18;;;;;;;4.80;4.30;;;36.00;99.60;;;;;;5008625;28;20193;-83
2023/08/19 10:15:45;;;;;;;5.15;4.22;;;35.80;99.90;;;;;;5012149;28;20208;-85
2023/08/19 10:18:17;;;;;;;8.02;4.13;;;35.90;99.90;;;;;;5012993;28;20574;-86
2023/08/19 10:20:46;;;;;;;4.82;3.92;;;36.00;99.80;;;;;;5010619;28;20260;-81
2023/08/19 10:23:16;;;;;;;4.20;3.80;;;36.10;99.60;;;;;;5017058;28;20239;-84
2023/08/19 10:25:44;;;;;;;4.72;4.22;;;35.90;99.20;;;;;;4994531;28;20259;-82
2023/08/19 10:28:12;;;;;;;5.88;4.03;;;35.80;98.00;;;;;;5012927;28;20200;-84
2023/08/19 10:30:39;;;;;;;5.47;4.03;;;35.70;98.70;;;;;;5003455;28;20280;-85
2023/08/19 10:33:36;;;;;;;4.65;3.78;;;35.60;98.60;;;;;;4999065;28;20211;-84
2023/08/19 10:36:05;;;;;;;5.88;3.60;;;35.60;97.60;;;;;;5008968;28;20224;-85
2023/08/19 10:38:43;;;;;;;4.13;3.33;;;35.40;96.50;;;;;;5011004;28;20219;-85
2023/08/19 10:41:19;;;;;;;4.85;4.00;;;35.30;97.90;;;;;;5010339;28;20212;-85
2023/08/19 10:43:54;;;;;;;4.45;3.53;;;35.20;97.30;;;;;;5004133;28;20736;-82
2023/08/19 10:46:25;;;;;;;4.85;3.67;;;35.10;95.70;;;;;;5011174;28;20224;-84
2023/08/19 10:48:53;;;;;;;4.78;4.15;;;35.00;96.40;;;;;;5010585;28;20207;-83
2023/08/19 10:51:21;;;;;;;5.30;3.67;;;34.70;95.30;;;;;;5009167;28;20254;-85
2023/08/19 10:53:51;;;;;;;7.95;4.13;;;34.70;97.10;;;;;;5009978;28;20216;-85
2023/08/19 10:56:20;;;;;;;5.30;3.72;;;34.80;97.50;;;;;;5011729;28;20220;-84
2023/08/19 10:58:49;;;;;;;6.70;3.90;;;34.90;96.90;;;;;;5010318;28;20686;-84
2023/08/19 11:01:15;;;;;;;5.22;3.67;;;34.80;95.80;;;;;;5010369;28;20200;-82
2023/08/19 11:03:43;;;;;;;7.00;3.38;;;34.60;96.30;;;;;;5012081;28;20217;-84
2023/08/19 11:06:11;;;;;;;4.07;3.58;;;34.60;95.90;;;;;;5010488;28;20793;-84
2023/08/19 11:08:44;;;;;;;6.00;4.03;;;34.40;95.90;;;;;;5011390;28;20192;-84
2023/08/19 11:11:16;;;;;;;4.47;3.33;;;34.40;96.70;;;;;;5010492;28;20208;-84
2023/08/19 11:13:44;;;;;;;5.55;3.65;;;34.50;96.20;;;;;;5007369;28;20267;-84
2023/08/19 11:16:15;;;;;;;5.43;3.65;;;34.50;95.10;;;;;;5010290;28;20268;-84
2023/08/19 11:18:42;;;;;;;4.40;3.35;;;34.30;95.80;;;;;;5011674;28;20193;-83
2023/08/19 11:21:11;;;;;;;5.35;3.35;;;34.30;95.80;;;;;;5011130;28;20209;-81
2023/08/19 11:23:37;;;;;;;3.92;2.97;;;34.30;95.20;;;;;;5011819;28;20227;-83
2023/08/19 11:26:04;;;;;;;4.07;3.55;;;34.30;94.80;;;;;;5010868;28;20220;-83
2023/08/19 11:28:32;;;;;;;5.35;3.70;;;34.30;95.70;;;;;;5013883;28;20209;-84
2023/08/19 11:31:00;;;;;;;4.47;4.07;;;34.40;96.20;;;;;;4997356;28;20629;-83
2023/08/19 11:33:31;;;;;;;4.80;4.40;;;34.50;96.60;;;;;;5014417;28;20220;-84
2023/08/19 11:35:58;;;;;;;5.15;4.53;;;34.40;95.70;;;;;;5014906;28;20695;-84
2023/08/19 11:38:26;;;;;;;6.32;5.07;;;34.40;95.10;;;;;;5013731;28;20212;-85
2023/08/19 11:40:53;;;;;;;5.30;4.80;;;34.40;95.30;;;;;;5013587;28;20568;-83
2023/08/19 11:43:23;;;;;;;6.18;5.50;;;34.20;94.50;;;;;;5012936;28;20217;-82
2023/08/19 11:45:50;;;;;;;6.25;5.25;;;34.10;94.80;;;;;;4997021;28;20196;-83
2023/08/19 11:48:18;;;;;;;5.55;5.03;;;34.10;95.20;;;;;;5013949;28;20208;-83
2023/08/19 11:50:48;;;;;;;5.68;5.18;;;34.20;95.60;;;;;;5015355;28;20205;-84
2023/08/19 11:53:22;;;;;;;5.80;5.10;;;34.30;96.00;;;;;;5013979;28;20223;-82
2023/08/19 11:55:52;;;;;;;5.60;5.10;;;34.20;94.80;;;;;;4998121;28;20291;-83
2023/08/19 11:58:20;;;;;;;5.60;5.15;;;34.20;94.80;;;;;;5014872;28;20196;-82
2023/08/19 12:00:47;;;;;;;6.07;5.13;;;34.30;93.90;;;;;;5008071;28;20221;-83
2023/08/19 12:03:16;;;;;;;5.63;5.15;;;34.20;94.10;;;;;;5020607;28;20204;-83
2023/08/19 12:05:44;;;;;;;5.93;5.30;;;34.20;94.30;;;;;;5019401;28;20192;-83
2023/08/19 12:08:27;;;;;;;6.55;4.93;;;34.00;93.10;;;;;;5018250;28;20607;-83
2023/08/19 12:10:55;;;;;;;5.25;4.72;;;34.00;94.00;;;;;;4991115;28;20207;-83
2023/08/19 12:13:23;;;;;;;4.80;4.30;;;34.00;93.30;;;;;;5013512;28;20225;-82
2023/08/19 12:15:52;;;;;;;5.88;4.25;;;34.00;92.80;;;;;;5012215;28;20285;-82
2023/08/19 12:18:21;;;;;;;4.60;4.30;;;34.00;92.30;;;;;;4993630;28;20615;-84
2023/08/19 12:20:49;;;;;;;5.03;4.63;;;33.90;92.50;;;;;;5010926;28;20659;-83
2023/08/19 12:23:16;;;;;;;5.85;5.15;;;33.90;90.60;;;;;;5014272;28;20226;-83
2023/08/19 12:25:50;;;;;;;5.35;4.90;;;33.90;91.50;;;;;;5012988;28;20264;-84
2023/08/19 12:28:25;;;;;;;5.63;5.22;;;33.70;90.70;;;;;;5013184;28;20204;-83
2023/08/19 12:31:06;;;;;;;5.90;5.40;;;33.70;91.60;;;;;;4997329;28;20247;-83
2023/08/19 12:33:45;;;;;;;5.50;5.00;;;33.80;91.20;;;;;;4996401;28;20671;-82
2023/08/19 12:36:12;;;;;;;4.50;4.18;;;33.80;91.40;;;;;;5014453;28;20315;-83
2023/08/19 12:38:39;;;;;;;5.32;4.82;;;33.90;91.00;;;;;;5003033;28;20208;-83
2023/08/19 12:41:06;;;;;;;5.15;4.72;;;33.90;90.20;;;;;;5007586;28;20211;-83
2023/08/19 12:43:34;;;;;;;5.47;4.90;;;33.80;90.60;;;;;;5013428;28;20222;-82
2023/08/19 12:46:01;;;;;;;6.50;5.97;;;33.60;90.60;;;;;;5014196;28;20220;-83
2023/08/19 12:48:43;;;;;;;6.00;5.47;;;33.60;91.30;;;;;;5012788;28;20208;-84
2023/08/19 12:51:10;;;;;;;5.45;4.60;;;33.60;91.70;;;;;;4996647;28;20208;-83
2023/08/19 12:53:38;;;;;;;4.63;4.32;;;33.70;89.20;;;;;;5013108;28;20288;-83
2023/08/19 12:56:05;;;;;;;5.15;4.70;;;33.80;91.40;;;;;;5014334;28;20273;-83
2023/08/19 12:58:31;;;;;;;4.40;4.10;;;34.00;91.20;;;;;;5013423;28;20212;-83
2023/08/19 13:01:00;;;;;;;4.55;4.18;;;34.00;90.00;;;;;;5010903;28;20198;-83
2023/08/19 13:03:26;;;;;;;4.43;4.13;;;34.10;89.50;;;;;;5012088;28;20212;-83
2023/08/19 13:05:53;;;;;;;4.95;4.53;;;34.10;88.70;;;;;;5012920;28;20189;-83
2023/08/19 13:08:23;;;;;;;5.43;4.85;;;34.10;90.60;;;;;;4997382;28;20263;-83
2023/08/19 13:10:50;;;;;;;4.55;4.20;;;34.10;90.20;;;;;;5012912;28;20202;-83